Time;durP1;ratioP1;P1;durP2;ratioP2;P2;SDS_P1;SDS_P2;PMS_P1;PMS_P2;Temp;Humidity;BMP_temperature;BMP_pressure;BME280_temperature;BME280_humidity;BME280_pressure;Samples;Min_cycle;Max_cycle;Signal;HPM_P1;HPM_P2
2022/05/27 00:02:19;;;;;;;20.62;9.20;;;27.50;99.90;;;;;;1841861;77;21168;-85
2022/05/27 00:04:50;;;;;;;16.30;8.23;;;27.30;99.90;;;;;;1842247;78;21117;-83
2022/05/27 00:07:22;;;;;;;17.52;8.83;;;27.40;99.90;;;;;;1857729;76;21209;-85
2022/05/27 00:09:53;;;;;;;15.30;8.28;;;27.40;99.90;;;;;;1794909;79;21096;-82
2022/05/27 00:12:24;;;;;;;16.02;8.48;;;27.50;99.90;;;;;;1799998;79;21643;-82
2022/05/27 00:14:55;;;;;;;18.17;8.13;;;27.40;99.90;;;;;;1801778;79;21195;-85
2022/05/27 00:17:28;;;;;;;18.62;9.03;;;27.50;99.90;;;;;;1803053;79;21734;-74
2022/05/27 00:19:59;;;;;;;19.02;9.00;;;27.60;99.90;;;;;;1802107;79;21241;-81
2022/05/27 00:22:29;;;;;;;18.10;8.55;;;27.60;99.90;;;;;;1801201;79;21142;-80
2022/05/27 00:25:00;;;;;;;20.60;8.63;;;27.70;99.90;;;;;;1801881;79;21630;-81
2022/05/27 00:27:31;;;;;;;21.17;8.08;;;27.60;99.90;;;;;;1800836;79;21158;-85
2022/05/27 00:30:06;;;;;;;16.02;8.90;;;27.60;99.90;;;;;;1801357;79;21191;-85
2022/05/27 00:32:39;;;;;;;22.60;9.20;;;27.70;99.90;;;;;;1796156;79;21116;-85
2022/05/27 00:35:11;;;;;;;18.17;8.90;;;27.60;99.90;;;;;;1802489;79;21198;-83
2022/05/27 00:37:42;;;;;;;22.60;9.68;;;27.70;99.90;;;;;;1802010;79;21245;-85
2022/05/27 00:40:15;;;;;;;26.82;9.20;;;27.70;99.90;;;;;;1805775;79;21230;-85
2022/05/27 00:42:47;;;;;;;15.83;7.80;;;27.70;99.90;;;;;;1798508;79;21155;-84
2022/05/27 00:45:19;;;;;;;18.10;8.38;;;27.90;99.90;;;;;;1802586;79;21190;-85
2022/05/27 00:47:53;;;;;;;17.45;8.05;;;28.00;99.90;;;;;;1802455;78;21116;-85
2022/05/27 00:50:26;;;;;;;17.02;8.38;;;27.90;99.90;;;;;;1801447;79;21162;-85
2022/05/27 00:52:58;;;;;;;18.98;8.23;;;27.90;99.90;;;;;;1803994;79;21187;-84
2022/05/27 00:55:31;;;;;;;19.15;8.00;;;28.00;99.90;;;;;;1796043;79;21682;-82
2022/05/27 00:58:05;;;;;;;15.98;7.83;;;28.10;99.90;;;;;;1802519;79;21104;-83
2022/05/27 01:00:38;;;;;;;22.02;8.83;;;27.90;99.90;;;;;;1802817;79;21171;-83
2022/05/27 01:03:11;;;;;;;16.80;7.85;;;28.10;99.90;;;;;;1801901;79;21167;-82
2022/05/27 01:05:45;;;;;;;17.55;7.70;;;28.20;99.90;;;;;;1801548;79;21611;-82
2022/05/27 01:08:18;;;;;;;14.63;8.70;;;28.10;99.90;;;;;;1817366;77;21269;-82
2022/05/27 01:10:51;;;;;;;17.32;8.15;;;28.20;99.90;;;;;;1773490;79;21626;-83
2022/05/27 01:13:25;;;;;;;20.60;9.20;;;28.40;99.90;;;;;;1768594;79;21116;-84
2022/05/27 01:15:58;;;;;;;22.07;9.60;;;28.50;99.90;;;;;;1826008;78;21226;-83
2022/05/27 01:21:06;;;;;;;18.73;8.13;;;28.60;99.90;;;;;;1825862;78;21207;-82
2022/05/27 01:23:39;;;;;;;20.02;8.58;;;28.60;99.90;;;;;;1823957;78;21153;-83
2022/05/27 01:26:11;;;;;;;20.23;8.53;;;28.70;99.90;;;;;;1826622;78;21672;-81
2022/05/27 01:28:44;;;;;;;19.70;8.65;;;28.80;99.90;;;;;;1817265;78;21098;-84
2022/05/27 01:31:18;;;;;;;17.42;8.35;;;28.90;99.90;;;;;;1825981;77;21152;-81
2022/05/27 01:33:55;;;;;;;17.65;8.70;;;28.90;99.90;;;;;;1824570;78;21224;-85
2022/05/27 01:36:29;;;;;;;18.70;7.80;;;29.10;99.90;;;;;;1817406;78;21642;-83
2022/05/27 01:39:02;;;;;;;18.02;8.28;;;29.20;99.90;;;;;;1816768;78;21130;-80
2022/05/27 01:41:37;;;;;;;17.25;7.83;;;29.40;99.90;;;;;;1785966;79;21262;-84
2022/05/27 01:44:11;;;;;;;21.30;8.40;;;29.50;99.90;;;;;;1758994;79;21172;-84
2022/05/27 01:46:45;;;;;;;20.60;8.35;;;29.40;99.90;;;;;;1780311;80;21780;-84
2022/05/27 01:49:20;;;;;;;17.80;7.90;;;29.40;99.90;;;;;;1789871;79;21178;-83
2022/05/27 01:51:56;;;;;;;15.53;7.67;;;29.60;99.90;;;;;;1778201;79;21243;-84
2022/05/27 01:54:36;;;;;;;19.42;7.37;;;29.60;99.90;;;;;;1825922;77;21193;-83
2022/05/27 01:57:06;;;;;;;20.20;8.73;;;29.70;99.90;;;;;;1821910;78;21125;-83
2022/05/27 01:59:42;;;;;;;17.87;8.03;;;29.90;99.70;;;;;;1827141;78;21758;-84
2022/05/27 02:02:15;;;;;;;21.33;8.45;;;29.70;99.90;;;;;;1822180;78;21170;-83
2022/05/27 02:04:48;;;;;;;16.15;7.40;;;29.80;99.90;;;;;;1813288;77;21133;-84
2022/05/27 02:07:22;;;;;;;15.58;7.80;;;29.80;99.80;;;;;;1845509;76;21219;-83
2022/05/27 02:09:55;;;;;;;17.35;7.70;;;29.80;99.20;;;;;;1834510;77;21591;-84
2022/05/27 02:12:29;;;;;;;15.88;7.65;;;29.90;99.00;;;;;;1834687;78;21160;-84
2022/05/27 02:15:02;;;;;;;13.83;7.30;;;29.70;99.20;;;;;;1824366;78;21592;-85
2022/05/27 02:17:35;;;;;;;17.20;7.87;;;29.70;99.00;;;;;;1835526;78;21133;-86
2022/05/27 02:20:08;;;;;;;16.30;7.37;;;29.70;99.00;;;;;;1831888;78;21148;-85
2022/05/27 02:22:42;;;;;;;19.17;8.88;;;30.00;99.60;;;;;;1835058;78;21576;-85
2022/05/27 02:25:17;;;;;;;27.15;8.10;;;30.00;99.20;;;;;;1834933;78;21062;-81
2022/05/27 02:27:48;;;;;;;15.53;7.35;;;30.10;99.10;;;;;;1833200;78;21143;-83
2022/05/27 02:30:29;;;;;;;19.60;7.35;;;30.40;98.20;;;;;;1835161;78;21113;-83
2022/05/27 02:35:29;;;;;;;17.65;8.00;;;30.50;98.00;;;;;;1834307;78;21184;-85
2022/05/27 02:38:01;;;;;;;15.53;6.80;;;30.50;97.80;;;;;;1824283;78;21160;-86
2022/05/27 02:40:34;;;;;;;20.37;8.18;;;30.90;97.80;;;;;;1837103;78;21335;-85
2022/05/27 02:43:07;;;;;;;21.23;8.30;;;30.80;97.00;;;;;;1831360;78;21202;-85
2022/05/27 02:45:39;;;;;;;16.25;8.28;;;31.00;97.30;;;;;;1841775;77;21093;-84
2022/05/27 02:48:11;;;;;;;17.85;7.62;;;31.30;96.70;;;;;;1842531;77;21137;-84
2022/05/27 02:50:46;;;;;;;18.30;7.58;;;31.20;96.70;;;;;;1765758;81;21574;-86
2022/05/27 02:53:23;;;;;;;18.25;7.62;;;31.30;96.90;;;;;;1842504;77;21136;-83
2022/05/27 02:55:57;;;;;;;20.02;7.58;;;31.40;97.70;;;;;;1846610;77;21178;-83
2022/05/27 02:58:30;;;;;;;17.55;7.50;;;31.10;97.70;;;;;;1850138;75;21077;-83
2022/05/27 03:01:04;;;;;;;15.70;7.12;;;31.10;98.20;;;;;;1849932;77;21295;-85
2022/05/27 03:03:36;;;;;;;15.63;7.17;;;31.20;98.40;;;;;;1850096;77;21136;-83
2022/05/27 03:06:12;;;;;;;17.73;8.13;;;30.90;98.60;;;;;;1833698;75;21065;-84
2022/05/27 03:08:46;;;;;;;19.57;7.28;;;30.80;98.80;;;;;;1847321;75;21194;-84
2022/05/27 03:11:21;;;;;;;16.75;7.75;;;30.90;98.50;;;;;;1846842;78;21093;-85
2022/05/27 03:13:55;;;;;;;21.23;7.53;;;31.10;98.50;;;;;;1847466;76;21136;-84
2022/05/27 03:16:29;;;;;;;21.68;7.10;;;31.10;98.20;;;;;;1847485;78;21133;-84
2022/05/27 03:19:03;;;;;;;27.05;8.40;;;30.70;98.40;;;;;;1844365;78;21108;-83
2022/05/27 03:21:35;;;;;;;20.77;7.58;;;31.00;98.70;;;;;;1844834;76;21176;-83
2022/05/27 03:24:09;;;;;;;21.37;7.47;;;30.80;96.90;;;;;;1845043;77;21196;-86
2022/05/27 03:26:42;;;;;;;19.70;8.38;;;30.90;96.90;;;;;;1845321;77;21485;-85
2022/05/27 03:29:16;;;;;;;;;;;31.00;96.80;;;;;;1836879;78;21132;-84
2022/05/27 03:31:50;;;;;;;19.23;7.08;;;31.00;95.70;;;;;;1844995;77;20186;-85
2022/05/27 03:34:24;;;;;;;22.52;7.53;;;31.10;94.30;;;;;;1834918;78;21164;-84
2022/05/27 03:36:55;;;;;;;18.95;6.80;;;31.20;94.30;;;;;;1847877;77;21128;-84
2022/05/27 03:39:32;;;;;;;22.82;6.62;;;31.50;93.40;;;;;;1845953;78;21147;-84
2022/05/27 03:42:05;;;;;;;19.40;7.03;;;31.50;93.50;;;;;;1848474;75;21161;-85
2022/05/27 03:44:36;;;;;;;18.35;6.67;;;31.40;93.50;;;;;;1860350;75;21206;-83
2022/05/27 03:47:07;;;;;;;17.82;6.55;;;31.70;93.10;;;;;;1867067;75;21159;-84
2022/05/27 03:49:38;;;;;;;19.95;7.42;;;31.40;92.40;;;;;;1870141;75;21093;-84
2022/05/27 03:52:12;;;;;;;21.70;7.97;;;31.30;92.90;;;;;;1776581;79;21130;-84
2022/05/27 03:54:43;;;;;;;23.25;7.30;;;31.30;93.50;;;;;;1872610;75;21146;-85
2022/05/27 03:57:14;;;;;;;13.75;6.40;;;31.40;93.30;;;;;;1863829;75;21269;-83
2022/05/27 03:59:45;;;;;;;16.10;6.90;;;31.50;93.50;;;;;;1863010;75;21704;-84
2022/05/27 04:02:16;;;;;;;20.52;7.00;;;31.40;92.80;;;;;;1860533;75;21197;-83
2022/05/27 04:04:49;;;;;;;22.67;7.10;;;31.20;93.30;;;;;;1877987;75;21146;-86
2022/05/27 04:07:20;;;;;;;21.85;6.95;;;31.10;92.90;;;;;;1827774;78;21832;-86
2022/05/27 04:09:51;;;;;;;19.37;7.15;;;31.20;93.20;;;;;;1877640;75;21114;-82
2022/05/27 04:12:22;;;;;;;19.10;7.08;;;31.20;93.30;;;;;;1860977;75;21233;-85
2022/05/27 04:14:54;;;;;;;21.95;8.20;;;31.40;93.00;;;;;;1862864;75;21153;-84
2022/05/27 04:17:32;;;;;;;29.20;7.97;;;31.30;93.20;;;;;;1860141;75;21791;-85
2022/05/27 04:20:01;;;;;;;21.40;7.12;;;31.40;93.10;;;;;;1859859;75;21177;-85
2022/05/27 04:22:32;;;;;;;24.25;7.25;;;31.30;92.40;;;;;;1847562;77;21208;-85
2022/05/27 04:25:11;;;;;;;21.50;7.03;;;31.20;92.40;;;;;;1859254;75;21112;-85
2022/05/27 04:27:43;;;;;;;23.25;7.55;;;31.30;92.40;;;;;;1860361;75;21196;-84
2022/05/27 04:30:15;;;;;;;23.60;7.10;;;31.60;92.40;;;;;;1859843;75;21678;-83
2022/05/27 04:32:46;;;;;;;17.85;6.95;;;31.50;92.50;;;;;;1852418;75;21150;-84
2022/05/27 04:35:17;;;;;;;22.75;7.47;;;31.40;92.50;;;;;;1835399;76;21241;-86
2022/05/27 04:37:48;;;;;;;27.55;7.95;;;31.50;92.70;;;;;;1826936;75;21104;-84
2022/05/27 04:40:19;;;;;;;17.85;7.75;;;31.50;92.40;;;;;;1863057;75;21423;-85
2022/05/27 04:42:50;;;;;;;23.60;7.75;;;31.60;92.60;;;;;;1874746;75;21152;-85
2022/05/27 04:45:21;;;;;;;25.82;9.18;;;31.70;92.50;;;;;;1785144;79;21620;-83
2022/05/27 04:47:53;;;;;;;25.50;8.88;;;31.90;91.90;;;;;;1822937;77;21608;-84
2022/05/27 04:50:27;;;;;;;23.57;7.95;;;31.80;92.20;;;;;;1835567;77;21168;-84
2022/05/27 04:52:58;;;;;;;23.98;8.63;;;32.10;91.40;;;;;;1835385;78;21153;-84
2022/05/27 04:55:30;;;;;;;17.65;7.85;;;32.10;91.00;;;;;;1835720;78;21493;-84
2022/05/27 04:58:02;;;;;;;21.93;8.15;;;32.30;90.30;;;;;;1835515;78;21212;-84
2022/05/27 05:00:35;;;;;;;20.72;6.97;;;32.40;89.90;;;;;;1834499;78;21129;-84
2022/05/27 05:03:06;;;;;;;22.05;7.40;;;32.50;88.70;;;;;;1824813;78;21200;-85
2022/05/27 05:05:39;;;;;;;22.80;8.30;;;32.80;90.30;;;;;;1758004;80;21180;-84
2022/05/27 05:08:10;;;;;;;25.45;7.87;;;32.70;90.60;;;;;;1829212;77;21598;-84
2022/05/27 05:10:43;;;;;;;17.23;6.95;;;32.90;90.00;;;;;;1783067;79;21176;-84
2022/05/27 05:13:15;;;;;;;21.07;7.20;;;33.10;88.40;;;;;;1824510;77;21685;-85
2022/05/27 05:15:46;;;;;;;22.95;7.37;;;33.10;87.90;;;;;;1784205;79;21117;-84
2022/05/27 05:18:17;;;;;;;21.62;7.60;;;33.10;87.70;;;;;;1823012;77;21154;-84
2022/05/27 05:20:48;;;;;;;21.62;8.68;;;33.40;86.50;;;;;;1829024;77;21622;-83
2022/05/27 05:23:20;;;;;;;19.17;7.03;;;33.60;86.20;;;;;;1836419;78;21262;-85
2022/05/27 05:25:51;;;;;;;21.00;7.08;;;33.40;86.60;;;;;;1836470;78;21916;-83
2022/05/27 05:28:22;;;;;;;23.55;7.28;;;33.20;86.80;;;;;;1835565;78;21726;-84
2022/05/27 05:30:53;;;;;;;20.00;7.80;;;33.20;86.60;;;;;;1836280;78;21529;-83
2022/05/27 05:33:26;;;;;;;20.15;8.63;;;33.20;86.80;;;;;;1835513;78;21065;-83
2022/05/27 05:35:56;;;;;;;21.55;7.55;;;33.10;87.60;;;;;;1827556;77;21122;-83
2022/05/27 05:38:27;;;;;;;19.48;7.90;;;33.30;86.10;;;;;;1813260;77;21123;-84
2022/05/27 05:40:59;;;;;;;20.48;7.53;;;33.30;87.40;;;;;;1823049;77;21119;-84
2022/05/27 05:43:30;;;;;;;22.82;7.37;;;33.10;86.80;;;;;;1838068;77;21234;-84
2022/05/27 05:46:02;;;;;;;18.98;7.87;;;33.30;87.20;;;;;;1823113;77;21248;-85
2022/05/27 05:48:34;;;;;;;21.23;8.03;;;33.10;86.80;;;;;;1825352;77;21127;-83
2022/05/27 05:51:05;;;;;;;17.87;7.62;;;33.20;86.40;;;;;;1815219;77;21154;-80
2022/05/27 05:53:36;;;;;;;23.52;7.78;;;33.20;85.60;;;;;;1828385;78;21230;-82
2022/05/27 05:56:08;;;;;;;23.55;7.53;;;33.20;86.20;;;;;;1816674;77;21224;-82
2022/05/27 05:58:39;;;;;;;20.68;7.12;;;33.60;86.80;;;;;;1827383;77;21162;-82
2022/05/27 06:01:10;;;;;;;19.32;7.08;;;33.50;86.20;;;;;;1841598;76;21273;-84
2022/05/27 06:03:42;;;;;;;21.15;8.03;;;33.50;85.60;;;;;;1860813;75;21097;-84
2022/05/27 06:06:13;;;;;;;20.92;8.05;;;33.50;84.80;;;;;;1844409;76;22039;-85
2022/05/27 06:08:45;;;;;;;17.65;6.80;;;33.60;84.40;;;;;;1854444;77;21092;-84
2022/05/27 06:11:16;;;;;;;17.73;7.33;;;33.80;83.80;;;;;;1842969;77;21140;-84
2022/05/27 06:13:46;;;;;;;19.32;6.50;;;33.80;83.70;;;;;;1854367;77;21210;-84
2022/05/27 06:16:17;;;;;;;17.67;7.90;;;33.70;83.30;;;;;;1843120;76;21202;-83
2022/05/27 06:18:49;;;;;;;19.67;6.47;;;33.80;84.30;;;;;;1854796;76;21682;-84
2022/05/27 06:21:22;;;;;;;21.35;8.10;;;34.00;82.80;;;;;;1846197;76;21203;-84
2022/05/27 06:23:52;;;;;;;15.72;7.10;;;33.80;83.10;;;;;;1855365;76;21147;-83
2022/05/27 06:26:23;;;;;;;20.43;6.87;;;33.90;82.50;;;;;;1776845;80;21178;-84
2022/05/27 06:36:38;;;;;;;22.40;7.75;;;34.00;80.50;;;;;;1848499;76;21183;-82
2022/05/27 06:39:13;;;;;;;23.05;7.05;;;34.00;79.90;;;;;;1848597;77;21624;-84
2022/05/27 06:41:45;;;;;;;19.92;7.03;;;34.00;79.40;;;;;;1848666;77;21167;-83
2022/05/27 06:44:16;;;;;;;16.20;6.30;;;34.20;78.50;;;;;;1815076;79;21154;-85
2022/05/27 06:46:50;;;;;;;16.40;6.17;;;34.10;77.40;;;;;;1803027;78;21141;-83
2022/05/27 06:49:21;;;;;;;20.12;7.35;;;33.90;78.60;;;;;;1805445;78;21234;-84
2022/05/27 06:51:52;;;;;;;24.37;8.38;;;33.90;78.30;;;;;;1823929;78;21718;-84
2022/05/27 06:54:22;;;;;;;17.25;6.25;;;34.00;79.40;;;;;;1786054;79;21514;-84
2022/05/27 06:56:53;;;;;;;22.70;6.72;;;33.80;79.10;;;;;;1805420;78;21152;-84
2022/05/27 06:59:32;;;;;;;18.10;6.35;;;33.70;79.70;;;;;;1797585;78;21169;-84
2022/05/27 07:02:05;;;;;;;15.43;6.22;;;33.80;79.80;;;;;;1796103;78;21302;-84
2022/05/27 07:04:37;;;;;;;19.12;6.67;;;33.70;78.50;;;;;;1799432;78;21158;-85
2022/05/27 07:07:08;;;;;;;21.10;6.40;;;33.60;79.30;;;;;;1782848;79;21226;-84
2022/05/27 07:09:39;;;;;;;13.88;5.72;;;33.50;80.70;;;;;;1793989;78;21250;-84
2022/05/27 07:12:13;;;;;;;16.17;6.47;;;33.60;81.60;;;;;;1794098;78;21183;-84
2022/05/27 07:14:44;;;;;;;21.12;8.33;;;33.70;79.30;;;;;;1785775;78;21553;-84
2022/05/27 07:17:15;;;;;;;14.23;6.05;;;33.70;79.90;;;;;;1789412;79;21168;-84
2022/05/27 07:19:46;;;;;;;15.28;6.42;;;33.70;79.30;;;;;;1789954;79;21151;-84
2022/05/27 07:22:17;;;;;;;19.15;6.25;;;33.50;77.70;;;;;;1774621;79;21176;-84
2022/05/27 07:24:48;;;;;;;19.55;6.95;;;33.50;78.80;;;;;;1784041;78;21120;-84
2022/05/27 07:27:19;;;;;;;21.15;5.90;;;33.40;79.60;;;;;;1800534;78;21206;-84
2022/05/27 07:29:50;;;;;;;24.67;7.25;;;33.70;80.60;;;;;;1777529;79;21140;-85
2022/05/27 07:32:23;;;;;;;21.62;6.25;;;33.50;80.40;;;;;;1789278;79;21109;-84
2022/05/27 07:34:53;;;;;;;16.82;6.25;;;33.60;80.60;;;;;;1803024;79;21211;-83
2022/05/27 07:37:25;;;;;;;19.75;5.92;;;33.70;79.60;;;;;;1800413;78;21648;-82
2022/05/27 07:39:56;;;;;;;16.57;6.40;;;33.80;79.10;;;;;;1811557;78;21161;-85
2022/05/27 07:42:26;;;;;;;19.65;6.25;;;33.80;77.90;;;;;;1807915;78;21691;-84
2022/05/27 07:44:57;;;;;;;16.65;6.03;;;34.00;77.60;;;;;;1801616;78;21811;-85
2022/05/27 07:47:29;;;;;;;22.25;6.25;;;34.00;73.30;;;;;;1797629;78;21507;-84
2022/05/27 07:49:59;;;;;;;16.48;6.05;;;34.10;75.30;;;;;;1805934;79;21135;-84
2022/05/27 07:52:32;;;;;;;17.60;6.67;;;34.10;75.80;;;;;;1800209;78;21696;-84
2022/05/27 07:55:03;;;;;;;14.47;5.60;;;34.20;71.70;;;;;;1816719;78;21167;-84
2022/05/27 07:57:35;;;;;;;14.80;6.12;;;34.10;72.00;;;;;;1838101;77;21246;-85
2022/05/27 08:00:17;;;;;;;18.87;6.47;;;34.20;73.40;;;;;;1852812;76;21107;-84
2022/05/27 08:02:49;;;;;;;19.70;6.10;;;34.20;74.80;;;;;;1855412;76;21152;-85
2022/05/27 08:05:22;;;;;;;20.95;6.87;;;34.20;73.10;;;;;;1854767;76;21214;-84
2022/05/27 08:07:57;;;;;;;15.35;6.00;;;34.30;73.50;;;;;;1865811;75;21249;-84
2022/05/27 08:10:30;;;;;;;18.82;6.20;;;34.30;74.50;;;;;;1869533;75;21150;-83
2022/05/27 08:13:05;;;;;;;15.87;5.87;;;34.30;74.90;;;;;;1862286;75;21088;-84
2022/05/27 08:15:35;;;;;;;14.93;5.45;;;34.30;73.80;;;;;;1859941;77;21210;-84
2022/05/27 08:18:06;;;;;;;18.92;6.37;;;34.30;73.10;;;;;;1860114;75;21210;-84
2022/05/27 08:20:43;;;;;;;18.40;5.62;;;34.30;73.80;;;;;;1871177;75;21150;-84
2022/05/27 08:23:11;;;;;;;17.73;6.03;;;34.30;73.00;;;;;;1843626;76;21196;-83
2022/05/27 08:25:43;;;;;;;20.57;6.65;;;34.30;73.90;;;;;;1854337;76;21494;-86
2022/05/27 08:28:15;;;;;;;18.90;6.12;;;34.30;73.20;;;;;;1848642;76;21080;-82
2022/05/27 08:30:46;;;;;;;14.50;6.25;;;34.40;73.60;;;;;;1859801;75;21233;-84
2022/05/27 08:33:17;;;;;;;13.30;4.90;;;34.30;71.80;;;;;;1856233;75;21118;-84
2022/05/27 08:38:22;;;;;;;17.32;5.35;;;34.40;72.40;;;;;;1874663;75;21186;-83
2022/05/27 08:40:59;;;;;;;15.00;5.85;;;34.40;71.20;;;;;;1860443;75;21217;-79
2022/05/27 08:43:32;;;;;;;14.80;5.78;;;34.50;71.30;;;;;;1854966;75;21200;-77
2022/05/27 08:46:06;;;;;;;18.73;7.37;;;34.40;71.10;;;;;;1875247;75;21607;-75
2022/05/27 08:48:40;;;;;;;16.42;5.70;;;34.30;71.90;;;;;;1827093;77;21625;-78
2022/05/27 08:51:15;;;;;;;15.18;5.70;;;34.40;71.90;;;;;;1791312;78;21153;-76
2022/05/27 08:53:49;;;;;;;16.15;6.33;;;34.40;72.10;;;;;;1765487;78;21736;-75
2022/05/27 09:01:32;;;;;;;19.82;5.87;;;34.40;69.30;;;;;;1780055;79;21567;-76
2022/05/27 09:04:05;;;;;;;20.32;6.40;;;34.40;68.50;;;;;;1757084;79;21112;-75
2022/05/27 09:06:39;;;;;;;19.32;5.60;;;34.30;69.30;;;;;;1805173;77;21669;-75
2022/05/27 09:09:12;;;;;;;15.48;6.15;;;34.20;69.60;;;;;;1808872;77;21717;-78
2022/05/27 09:11:46;;;;;;;18.92;5.97;;;34.20;69.20;;;;;;1777235;78;21230;-76
2022/05/27 09:14:20;;;;;;;15.90;6.10;;;34.20;71.10;;;;;;1752834;81;21292;-76
2022/05/27 09:16:54;;;;;;;14.03;5.20;;;34.30;72.80;;;;;;1819676;77;21190;-76
2022/05/27 09:19:29;;;;;;;16.32;6.65;;;34.20;71.00;;;;;;1803607;77;21171;-76
2022/05/27 09:22:03;;;;;;;17.30;5.37;;;34.10;70.00;;;;;;1819177;77;21622;-74
2022/05/27 09:24:38;;;;;;;14.53;5.42;;;34.10;69.80;;;;;;1764619;79;21757;-75
2022/05/27 09:27:12;;;;;;;18.02;5.90;;;34.10;68.90;;;;;;1772045;79;21181;-76
2022/05/27 09:29:46;;;;;;;15.75;5.62;;;34.10;69.80;;;;;;1810955;77;21091;-74
2022/05/27 09:32:20;;;;;;;17.60;5.30;;;34.20;69.60;;;;;;1793746;77;21098;-74
2022/05/27 09:34:51;;;;;;;17.75;6.00;;;34.10;69.90;;;;;;1747807;81;21178;-76
2022/05/27 09:37:25;;;;;;;19.07;6.45;;;34.10;70.10;;;;;;1821775;77;21086;-77
2022/05/27 09:40:03;;;;;;;17.32;5.83;;;34.10;70.10;;;;;;1841331;76;21100;-77
2022/05/27 09:42:36;;;;;;;18.95;6.25;;;34.10;70.10;;;;;;1820631;77;21168;-77
2022/05/27 09:45:07;;;;;;;17.23;6.55;;;34.00;70.10;;;;;;1774212;79;21143;-78
2022/05/27 09:47:40;;;;;;;17.92;6.28;;;33.90;72.20;;;;;;1829766;77;21162;-77
2022/05/27 09:50:13;;;;;;;13.50;6.60;;;33.80;75.40;;;;;;1837262;76;21612;-77
2022/05/27 09:52:46;;;;;;;19.00;6.65;;;33.80;76.80;;;;;;1846875;77;21164;-77
2022/05/27 09:55:20;;;;;;;20.80;7.15;;;33.60;77.90;;;;;;1848392;76;21201;-77
2022/05/27 09:57:54;;;;;;;17.40;6.72;;;33.40;79.10;;;;;;1809346;77;21566;-77
2022/05/27 10:00:27;;;;;;;19.95;6.33;;;33.50;79.60;;;;;;1837486;77;21141;-77
2022/05/27 10:02:58;;;;;;;13.20;6.15;;;33.30;80.00;;;;;;1828523;78;21188;-74
2022/05/27 10:05:32;;;;;;;22.37;7.10;;;33.30;80.60;;;;;;1785789;80;21252;-76
2022/05/27 10:08:03;;;;;;;16.95;6.55;;;33.10;81.60;;;;;;1846219;77;21139;-75
2022/05/27 10:10:37;;;;;;;15.68;6.72;;;33.00;82.00;;;;;;1848432;77;21808;-76
2022/05/27 10:13:13;;;;;;;15.35;7.10;;;32.90;82.40;;;;;;1847332;77;21222;-76
2022/05/27 10:15:45;;;;;;;15.50;6.05;;;32.90;82.70;;;;;;1848105;77;21149;-75
2022/05/27 10:18:19;;;;;;;14.80;6.47;;;32.90;82.00;;;;;;1846183;77;21132;-77
2022/05/27 10:20:54;;;;;;;15.35;5.95;;;32.80;82.10;;;;;;1837554;77;21083;-77
2022/05/27 10:23:28;;;;;;;14.83;5.78;;;32.80;81.90;;;;;;1847288;77;21236;-78
2022/05/27 10:26:06;;;;;;;15.40;6.42;;;32.70;81.80;;;;;;1802202;79;21070;-78
2022/05/27 10:28:37;;;;;;;17.40;6.28;;;32.80;82.20;;;;;;1799847;79;21537;-80
2022/05/27 10:31:10;;;;;;;16.07;6.05;;;32.80;82.60;;;;;;1801535;79;21147;-84
2022/05/27 10:33:44;;;;;;;14.87;5.85;;;32.70;82.50;;;;;;1802037;76;21205;-79
2022/05/27 10:36:17;;;;;;;16.02;5.90;;;32.60;82.70;;;;;;1799826;79;21194;-80
2022/05/27 10:38:50;;;;;;;14.13;5.45;;;32.60;82.90;;;;;;1800127;79;21246;-80
2022/05/27 10:41:24;;;;;;;14.80;5.85;;;32.50;83.20;;;;;;1801313;79;21143;-78
2022/05/27 10:44:06;;;;;;;17.52;7.00;;;32.60;83.40;;;;;;1792172;79;21260;-77
2022/05/27 10:46:40;;;;;;;21.15;5.75;;;32.50;83.70;;;;;;1802500;79;21544;-79
2022/05/27 10:49:14;;;;;;;19.90;6.78;;;32.60;84.10;;;;;;1776996;79;21236;-79
2022/05/27 10:51:48;;;;;;;18.45;6.85;;;32.50;84.90;;;;;;1824547;77;21077;-80
2022/05/27 10:54:21;;;;;;;16.65;7.55;;;32.40;84.90;;;;;;1821120;77;21621;-76
2022/05/27 11:02:04;;;;;;;16.12;7.53;;;32.40;85.10;;;;;;1796477;78;21654;-76
2022/05/27 11:04:38;;;;;;;19.60;6.28;;;32.50;85.40;;;;;;1860718;75;21214;-76
2022/05/27 11:07:11;;;;;;;19.62;7.10;;;32.60;84.50;;;;;;1869177;75;21104;-76
2022/05/27 11:09:45;;;;;;;16.52;7.47;;;32.40;84.50;;;;;;1858534;77;21254;-79
2022/05/27 11:12:19;;;;;;;18.12;7.00;;;32.40;84.70;;;;;;1864740;75;21642;-79
2022/05/27 11:17:27;;;;;;;14.58;5.78;;;32.30;84.30;;;;;;1862701;75;21116;-76
2022/05/27 11:20:01;;;;;;;15.80;6.00;;;32.40;83.40;;;;;;1862734;75;21701;-78
2022/05/27 11:22:37;;;;;;;14.35;5.80;;;32.30;82.80;;;;;;1877791;75;21167;-76
2022/05/27 11:25:10;;;;;;;15.88;6.28;;;32.30;82.70;;;;;;1865379;75;21097;-77
2022/05/27 11:27:44;;;;;;;14.10;5.78;;;32.20;81.80;;;;;;1862837;75;21154;-77
2022/05/27 11:30:18;;;;;;;24.75;7.25;;;32.40;83.20;;;;;;1859812;75;21175;-78
2022/05/27 11:32:54;;;;;;;16.48;5.90;;;32.20;82.20;;;;;;1857307;75;21223;-77
2022/05/27 11:35:28;;;;;;;14.87;6.45;;;32.20;83.20;;;;;;1864559;75;21548;-78
2022/05/27 11:38:02;;;;;;;16.67;6.62;;;32.30;83.10;;;;;;1848254;75;21158;-79
2022/05/27 11:40:35;;;;;;;18.20;7.47;;;32.20;84.20;;;;;;1858686;75;21260;-87
2022/05/27 11:43:09;;;;;;;18.12;7.75;;;32.10;84.70;;;;;;1860081;75;21252;-87
2022/05/27 11:45:42;;;;;;;13.78;6.45;;;32.00;84.90;;;;;;1861018;75;21143;-86
2022/05/27 11:48:16;;;;;;;22.87;7.55;;;32.00;85.20;;;;;;1858154;75;21165;-86
2022/05/27 11:50:50;;;;;;;18.20;6.92;;;31.90;85.30;;;;;;1844885;76;21212;-86
2022/05/27 11:53:25;;;;;;;18.57;7.33;;;32.00;85.60;;;;;;1842722;78;21203;-86
2022/05/27 11:55:59;;;;;;;18.90;7.50;;;31.90;85.50;;;;;;1844830;76;21055;-86
2022/05/27 11:58:32;;;;;;;13.28;6.03;;;31.80;85.70;;;;;;1841972;76;21672;-85
2022/05/27 12:01:08;;;;;;;18.15;6.78;;;31.90;85.80;;;;;;1837323;76;21164;-86
2022/05/27 12:03:42;;;;;;;16.75;7.28;;;31.90;86.40;;;;;;1841383;76;21184;-87
2022/05/27 12:06:17;;;;;;;17.65;6.87;;;31.80;86.40;;;;;;1843128;76;21170;-86
2022/05/27 12:08:50;;;;;;;20.17;7.62;;;31.70;86.70;;;;;;1842116;76;21141;-87
2022/05/27 12:11:25;;;;;;;17.52;7.33;;;31.70;86.80;;;;;;1837527;76;21224;-86
2022/05/27 12:13:58;;;;;;;17.95;6.87;;;31.60;86.90;;;;;;1845094;76;21198;-85
2022/05/27 12:16:32;;;;;;;12.80;6.80;;;31.90;87.20;;;;;;1829788;78;21199;-86
2022/05/27 12:19:06;;;;;;;13.55;6.70;;;31.60;86.90;;;;;;1830085;77;21078;-85
2022/05/27 12:21:42;;;;;;;23.57;7.13;;;31.50;86.80;;;;;;1835808;77;21113;-84
2022/05/27 12:24:15;;;;;;;20.35;7.03;;;31.50;87.00;;;;;;1843063;76;21174;-84
2022/05/27 12:26:47;;;;;;;22.22;8.00;;;31.70;87.50;;;;;;1845533;76;21095;-87
2022/05/27 12:29:21;;;;;;;13.93;7.05;;;31.50;87.60;;;;;;1838633;76;21235;-86
2022/05/27 12:31:55;;;;;;;15.60;7.12;;;31.60;88.00;;;;;;1839913;76;21648;-86
2022/05/27 12:34:29;;;;;;;17.48;7.70;;;31.40;88.20;;;;;;1841644;76;21281;-86
2022/05/27 12:37:09;;;;;;;16.85;7.50;;;31.50;88.40;;;;;;1841630;76;21216;-85
2022/05/27 12:39:41;;;;;;;17.30;7.25;;;31.40;88.60;;;;;;1843197;76;21653;-86
2022/05/27 12:42:17;;;;;;;16.82;7.00;;;31.40;88.80;;;;;;1846085;76;21139;-85
2022/05/27 12:44:49;;;;;;;20.37;7.45;;;31.30;88.80;;;;;;1839880;76;21156;-87
2022/05/27 12:47:24;;;;;;;17.45;7.33;;;31.30;89.20;;;;;;1783838;79;21187;-86
2022/05/27 12:49:58;;;;;;;19.37;7.87;;;31.30;90.10;;;;;;1791179;78;21136;-86
2022/05/27 12:52:31;;;;;;;18.55;7.67;;;31.50;90.00;;;;;;1819493;79;21153;-86
2022/05/27 12:55:05;;;;;;;16.85;7.60;;;31.40;90.00;;;;;;1818169;77;21128;-86
2022/05/27 13:02:51;;;;;;;15.60;7.00;;;31.10;90.00;;;;;;1773424;79;21186;-87
2022/05/27 13:05:23;;;;;;;19.73;8.18;;;31.10;90.00;;;;;;1789389;79;21170;-86
2022/05/27 13:07:55;;;;;;;12.78;7.25;;;31.10;90.00;;;;;;1777584;79;21099;-86
2022/05/27 13:10:29;;;;;;;14.93;7.72;;;31.10;90.10;;;;;;1772545;78;21151;-85
2022/05/27 13:13:02;;;;;;;17.90;7.58;;;31.10;90.20;;;;;;1831941;77;21165;-85
2022/05/27 13:15:35;;;;;;;18.02;8.00;;;31.00;90.20;;;;;;1820345;77;21160;-87
2022/05/27 13:18:09;;;;;;;21.60;8.85;;;31.10;90.30;;;;;;1841434;76;21183;-87
2022/05/27 13:20:43;;;;;;;19.65;9.13;;;31.00;90.50;;;;;;1851794;76;21112;-85
2022/05/27 13:23:15;;;;;;;17.87;7.80;;;31.00;90.40;;;;;;1833820;76;21218;-85
2022/05/27 13:25:52;;;;;;;22.10;8.35;;;31.00;90.40;;;;;;1843153;76;21122;-86
2022/05/27 13:28:25;;;;;;;19.45;7.90;;;30.90;90.30;;;;;;1837066;76;21151;-86
2022/05/27 13:31:00;;;;;;;18.10;8.35;;;30.90;90.30;;;;;;1846197;76;21220;-85
2022/05/27 13:33:40;;;;;;;20.85;7.78;;;31.00;90.50;;;;;;1833918;76;21171;-86
2022/05/27 13:36:10;;;;;;;17.35;8.40;;;30.90;90.50;;;;;;1830831;76;21223;-86
2022/05/27 13:38:43;;;;;;;19.77;8.15;;;30.90;90.50;;;;;;1839804;76;21176;-85
2022/05/27 13:41:17;;;;;;;19.12;7.80;;;30.90;90.60;;;;;;1811734;78;21247;-85